Time;durP1;ratioP1;P1;durP2;ratioP2;P2;SDS_P1;SDS_P2;PMS_P1;PMS_P2;Temp;Humidity;BMP_temperature;BMP_pressure;BME280_temperature;BME280_humidity;BME280_pressure;Samples;Min_cycle;Max_cycle;Signal;HPM_P1;HPM_P2
2021/07/21 00:02:04;;;;;;;3.38;1.13;;;16.40;77.30;;;19.21;64.53;102221.63;5035403;27;98443;-70
2021/07/21 00:04:35;;;;;;;0.70;0.70;;;16.40;77.40;;;19.14;65.23;102227.53;5033557;27;96870;-70
2021/07/21 00:07:05;;;;;;;0.30;0.30;;;16.30;77.40;;;19.13;65.04;102217.78;5038969;27;97388;-69
2021/07/21 00:09:34;;;;;;;8.40;1.25;;;16.30;77.40;;;19.16;64.58;102224.50;5036871;27;97188;-70
2021/07/21 00:14:53;;;;;;;2.35;1.08;;;16.20;77.40;;;18.96;65.25;102225.16;5038509;27;97852;-70
2021/07/21 00:17:25;;;;;;;1.45;1.00;;;16.20;77.40;;;19.03;64.57;102225.47;5035751;27;97460;-70
2021/07/21 00:20:08;;;;;;;1.77;0.10;;;16.20;77.40;;;18.95;65.15;102218.13;5036603;27;96957;-70
2021/07/21 00:22:41;;;;;;;2.45;1.48;;;16.20;77.50;;;18.92;64.92;102225.00;5035148;27;97862;-70
2021/07/21 00:25:15;;;;;;;1.35;1.25;;;16.10;77.40;;;18.89;64.85;102222.09;5039655;27;97688;-70
2021/07/21 00:27:46;;;;;;;2.83;0.60;;;16.10;77.50;;;18.91;64.64;102225.31;5024189;27;97382;-70
2021/07/21 00:30:20;;;;;;;3.30;0.93;;;16.00;77.50;;;18.82;64.85;102219.09;5035805;27;97168;-70
2021/07/21 00:32:50;;;;;;;0.60;0.60;;;16.00;77.50;;;18.83;65.17;102220.69;5033719;27;97315;-70
2021/07/21 00:35:20;;;;;;;1.88;0.50;;;16.00;77.60;;;18.82;64.60;102221.03;5040629;27;96940;-70
2021/07/21 00:37:49;;;;;;;0.35;0.35;;;15.90;77.50;;;18.77;64.68;102224.69;5031957;27;97172;-70
2021/07/21 00:40:19;;;;;;;2.05;1.42;;;15.90;77.60;;;18.72;64.74;102216.72;5038371;27;97048;-70
2021/07/21 00:42:49;;;;;;;0.57;0.40;;;15.90;77.60;;;18.68;64.82;102221.19;5039201;27;97871;-70
2021/07/21 00:45:17;;;;;;;2.65;0.98;;;15.80;77.60;;;18.70;64.75;102226.28;5038542;27;97633;-69
2021/07/21 00:47:47;;;;;;;0.57;0.50;;;15.80;77.60;;;18.67;65.00;102221.50;5036503;27;96871;-69
2021/07/21 00:50:16;;;;;;;1.27;0.70;;;15.80;77.70;;;18.67;64.76;102233.16;5019788;27;97056;-70
2021/07/21 00:52:49;;;;;;;1.38;0.90;;;15.80;77.70;;;18.61;64.70;102228.97;5039432;27;99142;-70
2021/07/21 00:55:22;;;;;;;2.60;1.85;;;15.70;77.70;;;18.58;64.69;102229.63;5025681;27;97741;-69
2021/07/21 00:57:58;;;;;;;1.17;1.08;;;15.70;77.70;;;18.59;64.76;102225.00;5037510;27;97518;-69
2021/07/21 01:00:31;;;;;;;4.28;1.10;;;15.70;77.80;;;18.61;64.89;102222.78;5036855;27;96970;-69
2021/07/21 01:03:00;;;;;;;0.47;0.32;;;15.70;77.80;;;18.57;64.76;102227.25;5036297;27;98805;-69
2021/07/21 01:05:41;;;;;;;2.70;0.90;;;15.60;77.70;;;18.54;64.45;102227.88;5030762;27;97763;-69
2021/07/21 01:08:14;;;;;;;2.25;1.92;;;15.70;77.80;;;18.53;64.47;102227.06;5030816;27;97608;-70
2021/07/21 01:11:16;;;;;;;0.30;0.30;;;15.60;77.70;;;18.49;64.67;102228.03;5026269;27;96992;-70
2021/07/21 01:14:01;;;;;;;0.55;0.55;;;15.60;77.70;;;18.47;64.37;102222.13;5038881;27;97918;-70
2021/07/21 01:16:37;;;;;;;0.75;0.75;;;15.60;77.70;;;18.45;64.99;102224.34;5038948;27;98056;-70
2021/07/21 01:19:15;;;;;;;0.17;0.17;;;15.60;77.80;;;18.40;64.61;102222.59;5036734;27;98372;-70
2021/07/21 01:22:14;;;;;;;5.18;1.55;;;15.50;77.70;;;18.34;65.33;102218.44;5020711;27;96849;-70
2021/07/21 01:25:07;;;;;;;3.10;1.07;;;15.50;77.80;;;18.30;64.90;102220.16;5032840;27;98265;-70
2021/07/21 01:28:04;;;;;;;0.63;0.63;;;15.50;77.80;;;18.31;64.54;102220.97;5036269;27;97741;-70
2021/07/21 01:30:47;;;;;;;1.25;0.73;;;15.40;77.70;;;18.27;65.30;102220.03;5023047;27;97658;-70
2021/07/21 01:33:17;;;;;;;1.02;0.98;;;15.40;77.80;;;18.24;64.87;102220.63;5033564;27;97285;-70
2021/07/21 01:35:57;;;;;;;2.67;1.33;;;15.40;77.80;;;18.40;64.57;102219.88;5051505;27;98174;-70
2021/07/21 01:38:40;;;;;;;1.85;1.48;;;15.40;77.90;;;18.25;65.20;102214.88;5036504;27;96908;-70
2021/07/21 01:41:16;;;;;;;1.63;0.73;;;15.40;77.90;;;18.23;64.94;102217.09;5021695;27;96735;-70
2021/07/21 01:43:55;;;;;;;1.15;1.10;;;15.40;77.80;;;18.23;64.62;102216.31;5022242;27;98107;-70
2021/07/21 01:46:27;;;;;;;1.00;0.57;;;15.40;77.80;;;18.24;64.92;102213.28;5035817;27;97843;-71
2021/07/21 01:49:01;;;;;;;0.75;0.75;;;15.40;77.80;;;18.21;64.44;102207.69;5023688;27;96938;-70
2021/07/21 01:51:36;;;;;;;1.27;0.65;;;15.30;77.70;;;18.16;64.35;102213.25;5035745;27;96817;-70
2021/07/21 01:54:10;;;;;;;1.35;0.90;;;15.30;77.70;;;18.13;64.89;102214.69;5036642;27;97464;-70
2021/07/21 01:56:55;;;;;;;0.90;0.90;;;15.30;77.70;;;18.03;64.45;102209.56;5054557;27;96985;-70
2021/07/21 01:59:30;;;;;;;3.57;1.50;;;15.20;77.70;;;17.96;65.40;102206.50;5039413;27;96749;-69
2021/07/21 02:02:09;;;;;;;0.70;0.70;;;15.20;77.80;;;17.91;64.69;102209.38;5028565;27;97368;-69
2021/07/21 02:04:49;;;;;;;4.15;1.77;;;15.10;77.90;;;17.89;64.79;102206.16;5039712;27;97114;-69
2021/07/21 02:07:19;;;;;;;0.40;0.40;;;15.10;77.90;;;17.79;64.90;102203.75;5037034;27;97819;-69
2021/07/21 02:09:49;;;;;;;1.75;1.65;;;15.00;77.90;;;17.66;66.05;102204.66;5039459;27;99208;-69
2021/07/21 02:12:39;;;;;;;0.47;0.47;;;15.00;77.90;;;17.60;65.77;102207.84;5034528;27;96846;-69
2021/07/21 02:15:13;;;;;;;0.50;0.50;;;14.90;78.00;;;17.64;64.91;102206.09;5031199;27;96983;-69
2021/07/21 02:17:43;;;;;;;2.40;0.75;;;14.90;78.10;;;17.69;65.32;102214.88;5022539;27;96721;-69
2021/07/21 02:20:14;;;;;;;0.47;0.47;;;14.90;78.20;;;17.68;64.83;102210.56;5041658;27;97744;-69
2021/07/21 02:22:50;;;;;;;1.05;0.85;;;14.80;78.20;;;17.72;65.50;102210.75;5042357;27;98544;-69
2021/07/21 02:25:31;;;;;;;0.90;0.90;;;14.80;78.20;;;17.73;64.84;102215.88;5048089;27;97765;-69
2021/07/21 02:28:00;;;;;;;1.50;1.13;;;14.80;78.20;;;17.70;64.66;102212.97;5036828;27;98049;-69
2021/07/21 02:30:47;;;;;;;5.22;1.75;;;14.80;78.20;;;17.67;65.76;102214.38;5033200;27;98272;-69
2021/07/21 02:33:23;;;;;;;0.73;0.57;;;14.80;78.20;;;17.65;65.19;102211.19;5033199;27;97398;-69
2021/07/21 02:35:52;;;;;;;1.30;1.13;;;14.80;78.20;;;17.64;65.55;102215.00;5025642;27;96891;-69
2021/07/21 02:38:21;;;;;;;0.22;0.22;;;14.80;78.10;;;17.64;64.48;102209.59;5036851;27;96698;-69
2021/07/21 02:40:57;;;;;;;0.17;0.17;;;14.70;77.50;;;17.60;65.28;102211.31;5038434;27;97720;-69
2021/07/21 02:43:32;;;;;;;1.00;0.75;;;14.70;78.00;;;17.52;65.76;102205.84;5040344;27;96870;-70
2021/07/21 02:46:10;;;;;;;2.20;2.00;;;14.70;78.10;;;17.53;64.98;102210.97;5037119;27;96868;-69
2021/07/21 02:48:45;;;;;;;12.77;0.98;;;14.70;78.20;;;17.53;65.34;102218.28;5039705;27;98127;-69
2021/07/21 02:51:28;;;;;;;2.38;1.70;;;14.70;78.20;;;17.53;64.67;102219.13;5036748;27;98989;-69
2021/07/21 02:54:12;;;;;;;5.13;1.13;;;14.70;78.20;;;17.51;65.36;102217.81;5036039;27;96950;-70
2021/07/21 02:56:54;;;;;;;3.05;2.10;;;14.60;78.20;;;17.45;64.71;102228.00;5043165;27;96933;-70
2021/07/21 02:59:42;;;;;;;8.10;1.33;;;14.60;78.20;;;17.47;65.07;102220.38;5043861;27;98196;-69
2021/07/21 03:02:20;;;;;;;1.45;1.00;;;14.60;78.20;;;17.46;65.09;102223.38;5023681;27;96949;-69
2021/07/21 03:04:55;;;;;;;3.72;2.40;;;14.60;78.20;;;17.43;65.07;102224.81;5035393;27;97175;-69
2021/07/21 03:07:32;;;;;;;1.17;0.80;;;14.60;78.20;;;17.43;65.26;102224.00;5036365;27;96905;-69
2021/07/21 03:10:12;;;;;;;2.10;0.47;;;14.60;78.30;;;17.44;64.49;102231.00;5055015;27;99582;-69
2021/07/21 03:13:04;;;;;;;3.53;1.73;;;14.60;78.30;;;17.40;65.13;102220.00;5020612;27;96908;-69
2021/07/21 03:15:43;;;;;;;2.05;1.17;;;14.50;78.20;;;17.54;64.21;102230.75;5033817;27;98428;-69
2021/07/21 03:18:20;;;;;;;2.33;1.20;;;14.60;78.30;;;17.61;65.21;102226.47;5037374;27;96961;-70
2021/07/21 03:20:51;;;;;;;0.00;0.00;;;14.60;78.40;;;17.67;64.43;102229.84;5035510;27;97823;-69
2021/07/21 03:23:28;;;;;;;0.35;0.35;;;14.60;78.40;;;17.68;64.83;102232.25;5041503;27;96859;-70
2021/07/21 03:26:19;;;;;;;1.00;0.97;;;14.60;78.30;;;17.72;64.98;102230.53;5037912;27;96837;-70
2021/07/21 03:28:52;;;;;;;0.45;0.45;;;14.60;78.30;;;17.81;63.95;102236.78;5037152;27;96707;-70
2021/07/21 03:31:24;;;;;;;1.48;1.38;;;14.70;78.40;;;17.87;63.81;102237.44;5046397;27;98222;-69
2021/07/21 03:34:06;;;;;;;0.65;0.65;;;14.70;78.30;;;17.95;63.65;102239.38;5044598;27;97735;-70
2021/07/21 03:36:50;;;;;;;1.52;1.38;;;14.70;78.30;;;18.02;63.89;102237.00;5037174;27;96937;-70
2021/07/21 03:39:57;;;;;;;0.43;0.43;;;14.70;78.20;;;18.06;63.46;102244.22;5037740;27;96946;-70
2021/07/21 03:42:54;;;;;;;0.75;0.75;;;14.80;78.20;;;18.11;64.09;102241.34;5032929;27;97557;-70
2021/07/21 03:45:35;;;;;;;0.93;0.82;;;14.90;78.10;;;18.16;63.97;102234.94;5040955;27;97912;-70
2021/07/21 03:48:08;;;;;;;0.35;0.35;;;14.90;78.00;;;18.18;63.85;102241.66;5037896;27;100171;-70
2021/07/21 03:51:00;;;;;;;0.98;0.98;;;15.00;78.00;;;18.23;63.39;102236.09;5032918;27;97667;-70
2021/07/21 03:53:43;;;;;;;0.38;0.38;;;15.00;77.90;;;18.24;63.19;102240.41;5034238;27;97931;-70
2021/07/21 03:56:14;;;;;;;0.73;0.73;;;15.00;77.90;;;18.26;63.44;102237.38;5033918;27;97683;-70
2021/07/21 03:58:55;;;;;;;0.43;0.43;;;15.00;77.80;;;18.26;63.41;102238.22;5033612;27;96829;-70
2021/07/21 04:01:28;;;;;;;2.55;1.58;;;15.00;77.80;;;18.26;63.50;102238.22;5037547;27;97430;-70
2021/07/21 04:04:03;;;;;;;0.77;0.77;;;15.10;77.80;;;18.20;64.00;102244.88;5038051;27;98006;-70
2021/07/21 04:06:38;;;;;;;0.55;0.55;;;15.10;77.70;;;18.20;63.30;102247.59;5035789;27;97727;-70
2021/07/21 04:09:19;;;;;;;1.88;0.88;;;15.10;77.70;;;18.17;63.34;102245.50;5045792;27;96725;-70
2021/07/21 04:11:52;;;;;;;6.03;2.10;;;15.10;77.70;;;18.15;63.54;102247.72;5040285;27;96797;-70
2021/07/21 04:14:27;;;;;;;1.80;1.30;;;15.10;77.60;;;18.14;63.30;102248.03;5039910;27;97780;-70
2021/07/21 04:17:26;;;;;;;0.43;0.22;;;15.10;77.60;;;18.17;64.01;102252.84;5009821;27;98309;-70
2021/07/21 04:19:55;;;;;;;0.82;0.77;;;15.10;77.60;;;18.25;63.48;102252.84;5038040;27;96792;-70
2021/07/21 04:22:28;;;;;;;5.68;0.65;;;15.10;77.50;;;18.32;63.02;102253.25;5037190;27;97430;-70
2021/07/21 04:24:59;;;;;;;0.47;0.30;;;15.10;77.50;;;18.40;63.31;102260.59;5036734;27;97932;-70
2021/07/21 04:27:38;;;;;;;0.20;0.20;;;15.20;77.50;;;18.53;62.86;102250.72;5041830;27;97752;-70
2021/07/21 04:30:17;;;;;;;2.17;1.65;;;15.20;77.40;;;18.64;62.20;102260.94;5036945;27;97310;-70
2021/07/21 04:32:49;;;;;;;0.87;0.87;;;15.30;77.30;;;18.72;62.79;102265.59;5041502;27;97069;-70
2021/07/21 04:35:21;;;;;;;1.77;0.75;;;15.40;77.30;;;18.82;62.21;102257.09;5020841;27;96975;-69
2021/07/21 04:38:08;;;;;;;1.65;0.95;;;15.50;77.20;;;18.89;62.38;102254.72;5038070;27;97724;-69
2021/07/21 04:40:56;;;;;;;1.23;1.02;;;15.50;77.10;;;18.99;62.15;102257.13;5044933;27;96885;-69
2021/07/21 04:43:45;;;;;;;0.95;0.93;;;15.60;77.10;;;19.01;62.59;102260.31;5035343;27;97056;-69
2021/07/21 04:46:37;;;;;;;0.30;0.30;;;15.70;77.10;;;19.11;62.27;102260.78;5030281;27;98102;-70
2021/07/21 04:49:11;;;;;;;4.45;1.65;;;15.70;77.10;;;19.19;62.38;102270.06;5035626;27;97711;-70
2021/07/21 04:51:44;;;;;;;;;;;15.80;77.10;;;19.30;62.18;102263.19;5040387;27;97038;-70
2021/07/21 04:54:23;;;;;;;5.28;1.48;;;15.80;77.10;;;19.43;61.77;102267.63;5032814;27;99519;-70
2021/07/21 04:56:56;;;;;;;3.42;1.75;;;15.90;77.00;;;19.52;61.60;102268.41;5047277;27;97847;-69
2021/07/21 04:59:30;;;;;;;0.43;0.43;;;16.00;76.90;;;19.61;61.79;102261.03;5038620;27;97733;-69
2021/07/21 05:02:01;;;;;;;3.70;1.40;;;16.10;76.90;;;19.77;61.23;102264.78;5025450;27;101220;-69
2021/07/21 05:04:34;;;;;;;1.15;0.98;;;16.20;76.70;;;19.92;60.86;102272.44;5036027;27;96927;-69
2021/07/21 05:07:31;;;;;;;5.47;2.13;;;16.30;76.70;;;20.14;60.43;102269.47;5029732;27;97851;-70
2021/07/21 05:10:15;;;;;;;4.03;1.98;;;16.50;76.50;;;20.32;60.90;102268.22;5037061;27;97639;-70
2021/07/21 05:12:45;;;;;;;1.45;1.23;;;16.60;76.20;;;20.49;60.30;102273.59;5032049;27;97028;-69
2021/07/21 05:15:17;;;;;;;3.30;2.20;;;16.70;76.10;;;20.60;60.48;102270.94;5020504;27;97329;-71
2021/07/21 05:17:48;;;;;;;3.70;1.77;;;16.90;75.90;;;20.76;60.23;102274.66;5031447;27;98260;-71
2021/07/21 05:20:23;;;;;;;1.65;1.45;;;17.10;75.70;;;20.99;59.62;102284.09;5048487;27;97309;-71
2021/07/21 05:22:58;;;;;;;6.63;2.38;;;17.20;75.60;;;21.17;58.81;102277.38;5024277;27;96954;-70
2021/07/21 05:25:40;;;;;;;0.93;0.93;;;17.40;75.40;;;21.35;58.60;102272.56;5022659;27;96919;-70
2021/07/21 05:28:50;;;;;;;1.42;1.25;;;17.60;75.20;;;21.53;59.50;102282.16;5022374;27;97938;-70
2021/07/21 05:31:38;;;;;;;1.67;1.55;;;17.80;75.00;;;21.78;58.31;102289.28;5004644;28;100282;-70
2021/07/21 05:34:19;;;;;;;23.23;2.63;;;18.00;74.70;;;22.00;58.24;102278.72;5031702;27;96914;-70
2021/07/21 05:36:50;;;;;;;2.13;1.55;;;18.10;74.60;;;22.10;58.38;102283.72;5034060;27;96947;-70
2021/07/21 05:39:30;;;;;;;1.77;1.08;;;18.20;74.60;;;22.18;58.03;102277.34;5032650;27;97831;-70
2021/07/21 05:42:01;;;;;;;1.35;0.88;;;18.30;74.80;;;22.16;59.05;102282.34;5031717;27;97738;-70
2021/07/21 05:44:34;;;;;;;13.15;2.50;;;18.30;74.80;;;22.06;59.58;102282.81;5037400;27;96821;-70
2021/07/21 05:47:06;;;;;;;4.00;1.00;;;18.30;75.10;;;21.96;59.88;102282.47;5051794;27;96981;-70
2021/07/21 05:49:35;;;;;;;4.45;1.70;;;18.30;75.30;;;21.90;59.75;102287.34;5031810;27;97904;-70
2021/07/21 05:52:24;;;;;;;6.22;2.60;;;18.30;75.50;;;21.82;59.97;102279.28;5040067;27;97240;-70
2021/07/21 05:54:53;;;;;;;2.78;1.20;;;18.30;75.70;;;21.64;61.16;102286.88;5021484;27;98117;-70
2021/07/21 05:57:25;;;;;;;5.00;1.27;;;18.20;75.70;;;21.60;60.83;102290.56;5039754;27;96740;-70
2021/07/21 06:00:12;;;;;;;0.80;0.80;;;18.20;75.90;;;21.54;61.08;102291.94;5036888;27;96939;-70
2021/07/21 06:02:48;;;;;;;2.20;1.00;;;18.10;76.00;;;21.51;60.87;102296.13;5037060;27;97574;-70
2021/07/21 06:05:25;;;;;;;0.43;0.43;;;18.10;76.10;;;21.59;60.70;102292.50;5037010;27;96952;-71
2021/07/21 06:08:07;;;;;;;3.35;1.13;;;18.10;76.20;;;21.60;61.15;102288.63;5020116;27;96848;-70
2021/07/21 06:10:55;;;;;;;1.40;1.20;;;18.10;76.40;;;21.54;61.96;102300.91;5019897;27;98258;-70
2021/07/21 06:13:26;;;;;;;4.10;2.28;;;18.00;76.40;;;21.48;61.07;102294.06;5032925;27;97423;-71
2021/07/21 06:16:03;;;;;;;1.02;0.50;;;18.00;76.40;;;21.36;62.22;102298.69;5036728;27;96812;-70
2021/07/21 06:18:36;;;;;;;3.90;1.45;;;18.00;76.50;;;21.19;62.65;102307.81;5040221;27;97200;-70
2021/07/21 06:21:09;;;;;;;0.70;0.70;;;18.00;76.60;;;21.34;62.03;102307.22;5022164;27;98011;-70
2021/07/21 06:23:53;;;;;;;0.82;0.80;;;17.90;76.60;;;21.36;62.00;102315.03;5008158;27;97106;-71
2021/07/21 06:26:23;;;;;;;2.55;0.88;;;17.90;76.70;;;21.46;61.58;102309.16;5024325;27;97093;-70
2021/07/21 06:29:09;;;;;;;2.33;2.13;;;18.00;76.80;;;21.53;61.50;102320.34;5023197;27;97008;-70
2021/07/21 06:31:43;;;;;;;0.77;0.77;;;17.90;76.70;;;21.55;62.31;102320.81;5022798;27;97923;-70
2021/07/21 06:34:12;;;;;;;4.60;1.75;;;18.00;76.70;;;21.53;61.79;102321.13;5042256;27;98524;-72
2021/07/21 06:36:41;;;;;;;0.75;0.75;;;18.00;76.70;;;21.53;61.98;102318.41;5027860;27;96913;-72
2021/07/21 06:39:11;;;;;;;7.82;2.15;;;18.00;76.60;;;21.53;61.70;102325.81;5052115;27;97145;-71
2021/07/21 06:41:41;;;;;;;14.35;2.42;;;18.00;76.70;;;21.60;61.84;102328.78;5038213;27;97360;-70
2021/07/21 06:44:11;;;;;;;1.23;1.10;;;18.00;76.70;;;21.74;60.65;102324.63;5040168;27;98164;-70
2021/07/21 06:46:52;;;;;;;3.67;0.88;;;18.00;76.70;;;21.82;61.29;102322.94;5027945;27;96851;-70
2021/07/21 06:49:25;;;;;;;0.52;0.52;;;18.10;76.70;;;21.84;60.94;102334.31;5038457;27;97094;-71
2021/07/21 06:51:54;;;;;;;0.80;0.80;;;18.10;76.70;;;21.62;61.90;102329.25;5053338;27;97300;-71
2021/07/21 06:54:30;;;;;;;2.35;1.40;;;18.10;76.60;;;21.72;61.54;102335.09;5024540;27;97746;-70
2021/07/21 06:57:21;;;;;;;1.65;0.80;;;18.10;76.60;;;21.77;60.85;102336.78;5041292;27;97499;-70
2021/07/21 07:00:11;;;;;;;4.03;1.58;;;18.20;76.60;;;21.85;61.49;102342.16;5041505;27;96764;-70
2021/07/21 07:03:00;;;;;;;2.22;1.20;;;18.30;76.70;;;21.92;61.11;102345.16;5015337;27;97087;-70
2021/07/21 07:05:55;;;;;;;1.27;1.10;;;18.30;76.60;;;22.04;60.50;102347.88;5017928;27;97698;-70
2021/07/21 07:08:56;;;;;;;4.10;0.90;;;18.40;76.50;;;22.17;60.97;102351.44;5031045;27;97346;-70
2021/07/21 07:11:29;;;;;;;1.65;1.45;;;18.50;76.50;;;22.27;61.03;102352.56;5041291;27;96893;-71
2021/07/21 07:13:58;;;;;;;2.60;1.77;;;18.60;76.50;;;22.35;60.41;102348.13;5035706;27;98096;-71
2021/07/21 07:16:28;;;;;;;3.92;1.70;;;18.60;76.40;;;22.46;60.44;102341.09;5036668;27;97861;-70
2021/07/21 07:18:56;;;;;;;2.03;1.23;;;18.70;76.30;;;22.52;60.65;102342.47;5040579;27;96836;-70
2021/07/21 07:21:28;;;;;;;6.38;1.10;;;18.70;76.20;;;22.55;59.98;102342.56;5040811;27;96936;-70
2021/07/21 07:23:58;;;;;;;0.38;0.38;;;18.80;76.10;;;22.50;60.68;102344.72;5038660;27;98505;-70
2021/07/21 07:26:27;;;;;;;1.88;1.35;;;18.80;76.00;;;22.55;60.33;102348.03;5026149;27;96909;-70
2021/07/21 07:28:56;;;;;;;5.03;1.02;;;18.80;76.00;;;22.54;60.81;102349.19;5040970;27;97019;-70
2021/07/21 07:31:27;;;;;;;1.88;0.73;;;18.90;76.10;;;22.67;59.79;102355.44;5043976;27;97051;-71
2021/07/21 07:33:56;;;;;;;2.17;1.23;;;18.90;76.10;;;22.73;59.85;102352.13;5041340;27;96868;-71
2021/07/21 07:36:25;;;;;;;2.00;1.55;;;19.00;76.10;;;22.79;60.02;102350.75;5024023;27;99255;-71
2021/07/21 07:38:54;;;;;;;1.05;1.05;;;19.10;76.20;;;22.95;59.81;102357.06;5037802;27;96793;-71
2021/07/21 07:41:23;;;;;;;1.85;1.67;;;19.20;76.20;;;23.09;60.14;102362.16;5036432;27;96801;-71
2021/07/21 07:43:53;;;;;;;1.15;0.80;;;19.30;76.00;;;23.20;59.96;102363.31;5038776;27;97973;-71
2021/07/21 07:46:25;;;;;;;2.40;2.20;;;19.40;75.90;;;23.33;59.52;102360.19;5037493;27;96756;-71
2021/07/21 07:48:57;;;;;;;0.65;0.30;;;19.40;75.70;;;23.41;59.46;102366.63;5038189;27;96888;-71
2021/07/21 07:51:29;;;;;;;0.93;0.93;;;19.60;75.70;;;23.53;59.52;102361.13;5036697;27;97388;-71
2021/07/21 07:53:58;;;;;;;6.60;1.58;;;19.60;75.60;;;23.67;59.17;102365.06;5039902;27;97599;-71
2021/07/21 07:56:30;;;;;;;1.58;1.25;;;19.70;75.60;;;23.83;59.07;102365.13;5037352;27;97959;-71
2021/07/21 07:58:59;;;;;;;3.83;1.60;;;19.90;75.60;;;23.96;59.37;102364.69;5032320;27;96851;-71
2021/07/21 08:01:31;;;;;;;1.27;1.20;;;20.00;75.50;;;24.08;58.70;102365.41;5036541;27;101036;-71
2021/07/21 08:04:05;;;;;;;0.88;0.88;;;20.10;75.40;;;24.11;58.83;102369.34;5038399;27;96937;-71
2021/07/21 08:06:37;;;;;;;2.03;1.88;;;20.20;75.30;;;24.11;59.32;102372.91;5034021;27;96840;-71
2021/07/21 08:09:12;;;;;;;1.65;1.33;;;20.30;75.20;;;24.18;59.02;102370.34;5028745;27;96843;-71
2021/07/21 08:11:45;;;;;;;7.10;1.48;;;20.30;75.20;;;24.29;59.10;102376.88;5020796;27;97305;-71
2021/07/21 08:14:14;;;;;;;6.18;1.88;;;20.40;75.20;;;24.37;58.99;102381.41;5031071;27;97868;-71
2021/07/21 08:16:43;;;;;;;2.88;1.35;;;20.50;75.10;;;24.45;58.98;102377.66;5033974;27;96798;-71
2021/07/21 08:19:13;;;;;;;1.30;1.20;;;20.50;75.10;;;24.59;58.75;102378.03;5029788;27;97270;-71
2021/07/21 08:21:43;;;;;;;2.90;1.33;;;20.70;75.20;;;24.72;58.69;102375.97;5031961;27;96963;-72
2021/07/21 08:24:13;;;;;;;2.47;1.80;;;20.70;75.00;;;24.73;58.92;102374.81;5019070;27;97249;-72
2021/07/21 08:26:42;;;;;;;3.65;2.58;;;20.80;75.00;;;24.78;59.03;102372.59;5029694;27;97935;-72
2021/07/21 08:29:11;;;;;;;0.77;0.77;;;20.90;74.90;;;24.91;58.36;102374.06;5032042;27;97242;-72
2021/07/21 08:31:41;;;;;;;2.28;1.90;;;21.00;74.90;;;25.00;58.69;102377.41;5017043;27;97294;-72
2021/07/21 08:34:11;;;;;;;3.22;1.83;;;21.00;74.80;;;25.14;58.08;102376.91;5033307;27;98113;-73
2021/07/21 08:36:41;;;;;;;6.00;1.65;;;21.10;74.80;;;25.34;58.09;102379.34;5039232;27;96965;-73
2021/07/21 08:39:12;;;;;;;13.27;1.65;;;21.20;74.80;;;25.50;57.96;102371.78;5025667;27;97701;-73
2021/07/21 08:41:41;;;;;;;0.75;0.70;;;21.30;74.60;;;25.64;57.85;102366.59;5042815;27;97328;-72
2021/07/21 08:44:14;;;;;;;2.10;1.70;;;21.50;74.60;;;25.78;57.68;102372.34;5036119;27;97035;-73
2021/07/21 08:46:44;;;;;;;;;;;21.60;74.50;;;25.92;57.54;102372.63;5021360;27;97838;-73
2021/07/21 08:49:13;;;;;;;3.70;1.33;;;21.70;74.40;;;26.04;57.38;102372.44;5034395;27;96794;-71
2021/07/21 08:51:44;;;;;;;0.75;0.75;;;21.90;74.30;;;26.08;57.73;102374.09;5051567;27;97675;-73
2021/07/21 08:54:17;;;;;;;0.40;0.40;;;22.00;74.10;;;26.14;57.38;102367.13;5020334;27;100203;-73
2021/07/21 08:56:46;;;;;;;0.68;0.68;;;22.10;74.00;;;26.29;57.52;102381.91;5036861;27;97195;-77
2021/07/21 08:59:17;;;;;;;1.95;1.75;;;22.20;74.00;;;26.45;57.42;102372.34;5037787;27;96860;-74
2021/07/21 09:01:46;;;;;;;1.15;0.90;;;22.30;74.00;;;26.75;57.05;102367.72;5034564;27;96969;-74
2021/07/21 09:04:16;;;;;;;1.65;1.27;;;22.40;74.00;;;26.93;56.56;102376.22;5035962;27;97299;-74
2021/07/21 09:06:46;;;;;;;1.27;1.02;;;22.60;73.90;;;27.27;56.11;102377.88;5037909;27;97632;-74
2021/07/21 09:09:15;;;;;;;6.88;0.90;;;22.80;73.70;;;27.71;55.14;102383.16;5023487;27;97306;-75
2021/07/21 09:11:45;;;;;;;1.27;1.08;;;23.00;73.40;;;27.98;54.93;102378.31;5034226;27;96768;-74
2021/07/21 09:14:13;;;;;;;1.17;1.08;;;23.30;73.10;;;28.17;54.57;102384.38;5023207;27;97067;-75
2021/07/21 09:16:45;;;;;;;0.93;0.85;;;23.50;72.80;;;28.43;54.18;102384.22;5022787;27;96836;-74
2021/07/21 09:19:15;;;;;;;1.33;1.23;;;23.70;72.60;;;28.82;53.76;102377.00;5036258;27;96894;-74
2021/07/21 09:21:46;;;;;;;0.57;0.52;;;23.90;72.50;;;29.19;53.30;102377.63;5043819;27;97688;-74
2021/07/21 09:24:21;;;;;;;0.68;0.68;;;24.10;72.40;;;29.49;52.97;102370.66;5034924;27;96873;-74
2021/07/21 09:26:50;;;;;;;2.05;1.13;;;24.40;72.20;;;29.70;53.01;102381.75;5033209;27;98085;-74
2021/07/21 09:29:19;;;;;;;1.58;1.17;;;24.70;72.10;;;30.04;52.58;102379.50;5022274;27;97334;-74
2021/07/21 09:31:54;;;;;;;1.13;0.95;;;24.90;71.90;;;30.52;52.13;102377.88;5043380;27;97518;-75
2021/07/21 09:34:25;;;;;;;0.15;0.15;;;25.20;71.80;;;31.32;50.62;102381.25;5039462;27;98103;-76
2021/07/21 09:37:06;;;;;;;2.45;1.42;;;25.60;71.60;;;31.55;50.74;102381.53;5032480;27;98221;-75
2021/07/21 09:39:38;;;;;;;3.38;1.15;;;25.90;71.10;;;32.20;49.74;102375.97;5039172;27;96834;-75
2021/07/21 09:42:11;;;;;;;0.38;0.35;;;26.20;71.10;;;33.56;47.25;102379.22;5036062;27;97158;-74
2021/07/21 09:44:44;;;;;;;0.47;0.47;;;26.70;71.20;;;33.23;48.86;102374.50;5040764;27;97173;-75
2021/07/21 09:47:17;;;;;;;8.30;1.38;;;27.10;71.00;;;33.47;48.89;102365.06;5036068;27;97891;-74
2021/07/21 09:49:49;;;;;;;0.60;0.60;;;27.40;70.40;;;35.86;44.45;102362.94;5039424;27;97010;-74
2021/07/21 09:52:24;;;;;;;1.75;0.57;;;27.70;70.70;;;37.69;41.81;102364.56;5038152;27;96903;-73
2021/07/21 09:55:13;;;;;;;1.40;0.50;;;28.40;71.10;;;37.12;44.11;102365.94;5039134;27;97227;-73
2021/07/21 09:57:44;;;;;;;2.40;1.50;;;29.00;71.20;;;37.75;44.16;102356.41;5036229;27;96977;-75
2021/07/21 10:00:22;;;;;;;0.90;0.65;;;29.40;71.50;;;37.69;44.85;102347.00;5037496;27;96877;-74
2021/07/21 10:03:10;;;;;;;1.20;0.63;;;29.70;71.70;;;37.52;46.45;102348.34;5036467;27;97184;-74
2021/07/21 10:06:05;;;;;;;3.20;1.15;;;30.10;72.10;;;37.40;47.25;102348.31;5039292;27;97334;-74
2021/07/21 10:08:43;;;;;;;2.55;1.80;;;30.50;72.10;;;37.20;48.77;102342.94;5041688;27;97816;-76
2021/07/21 10:11:29;;;;;;;0.77;0.77;;;30.70;72.30;;;36.91;50.18;102346.97;5035351;27;96931;-74
2021/07/21 10:14:13;;;;;;;2.95;1.17;;;31.00;72.20;;;36.78;51.19;102334.97;5039931;27;97845;-74
2021/07/21 10:16:46;;;;;;;1.88;0.70;;;31.20;72.40;;;36.93;51.75;102344.50;5037862;27;98867;-74
2021/07/21 10:19:17;;;;;;;;;;;31.40;73.10;;;37.08;51.95;102340.13;5041739;27;97685;-73
2021/07/21 10:21:51;;;;;;;2.53;1.77;;;31.60;72.30;;;36.67;52.85;102348.50;5037290;27;98350;-73
2021/07/21 10:24:23;;;;;;;4.22;2.13;;;31.70;72.50;;;36.50;53.56;102344.94;5041960;27;97008;-73
2021/07/21 10:26:54;;;;;;;4.30;1.55;;;31.70;72.50;;;36.29;54.07;102337.13;5039839;27;98015;-73
2021/07/21 10:29:25;;;;;;;9.23;1.70;;;31.60;72.70;;;36.28;54.45;102335.53;5036283;27;96812;-73
2021/07/21 10:31:56;;;;;;;2.85;1.13;;;31.60;73.20;;;36.46;54.37;102335.84;5043190;27;96840;-72
2021/07/21 10:34:26;;;;;;;3.05;1.35;;;31.70;73.20;;;36.65;54.31;102342.56;5034687;27;97100;-72
2021/07/21 10:36:55;;;;;;;3.25;1.30;;;31.90;73.00;;;36.71;54.46;102335.19;5034965;27;97887;-72
2021/07/21 10:39:30;;;;;;;8.77;0.95;;;32.00;72.90;;;36.81;54.08;102334.91;5035597;27;97313;-72
2021/07/21 10:42:05;;;;;;;4.18;2.20;;;32.10;72.90;;;36.75;54.36;102333.09;5021698;27;96938;-72
2021/07/21 10:44:35;;;;;;;1.92;0.85;;;32.20;72.60;;;36.68;54.51;102334.06;5040007;27;97362;-72
2021/07/21 10:47:24;;;;;;;1.05;0.88;;;32.10;72.40;;;36.85;54.14;102329.19;5034731;27;97906;-72
2021/07/21 10:49:57;;;;;;;11.15;1.45;;;32.10;71.90;;;37.11;53.33;102323.25;5036087;27;97626;-72
2021/07/21 10:52:47;;;;;;;;;;;32.10;72.30;;;37.28;52.81;102315.53;5053084;27;97270;-72